Time;durP1;ratioP1;P1;durP2;ratioP2;P2;SDS_P1;SDS_P2;PMS_P1;PMS_P2;Temp;Humidity;BMP_temperature;BMP_pressure;BME280_temperature;BME280_humidity;BME280_pressure;Samples;Min_cycle;Max_cycle;Signal;HPM_P1;HPM_P2
2022/02/14 15:27:07;;;;;;;23.30;10.50;;;9.90;72.40;;;;;;5052374;28;20454;-71
2022/02/14 15:29:36;;;;;;;40.58;14.52;;;10.10;65.40;;;;;;5039334;28;20108;-72
2022/02/14 15:32:06;;;;;;;49.33;16.45;;;10.10;64.40;;;;;;5034353;28;20053;-72
2022/02/14 15:34:33;;;;;;;28.58;14.20;;;10.00;64.20;;;;;;5038149;28;20056;-72
2022/02/14 15:37:00;;;;;;;18.27;9.23;;;9.90;64.10;;;;;;5037481;28;20116;-72
2022/02/14 15:39:27;;;;;;;19.23;9.43;;;10.00;64.10;;;;;;5036536;28;20705;-72
2022/02/14 15:41:57;;;;;;;18.85;9.18;;;10.00;64.50;;;;;;5053167;28;20078;-72
2022/02/14 15:44:26;;;;;;;20.15;8.85;;;10.00;63.90;;;;;;5059735;28;20052;-72
2022/02/14 15:46:55;;;;;;;19.52;8.70;;;9.90;63.90;;;;;;5058772;28;20067;-72
2022/02/14 15:49:23;;;;;;;22.13;8.88;;;9.80;64.10;;;;;;5043139;28;20445;-73
2022/02/14 15:51:50;;;;;;;20.20;8.77;;;9.80;64.00;;;;;;5064186;28;20965;-72
2022/02/14 15:54:18;;;;;;;22.23;9.40;;;9.70;64.00;;;;;;5060623;28;20037;-72
2022/02/14 15:56:46;;;;;;;25.92;10.10;;;9.80;63.70;;;;;;5061110;28;20047;-72
2022/02/14 15:59:14;;;;;;;26.70;10.43;;;9.80;63.70;;;;;;5034261;28;20044;-73
2022/02/14 16:01:41;;;;;;;26.63;10.40;;;9.70;64.20;;;;;;5055091;28;20826;-72
2022/02/14 16:04:08;;;;;;;28.45;10.48;;;9.80;64.20;;;;;;5056742;28;20528;-72
2022/02/14 16:06:38;;;;;;;22.85;9.88;;;9.70;64.20;;;;;;5037143;28;20568;-73
2022/02/14 16:09:06;;;;;;;23.58;8.85;;;9.70;64.30;;;;;;5054809;28;20040;-72
2022/02/14 16:11:33;;;;;;;24.33;11.00;;;9.80;64.20;;;;;;5038183;28;20036;-74
2022/02/14 16:14:00;;;;;;;22.45;9.38;;;9.80;64.20;;;;;;5041235;28;20053;-72
2022/02/14 16:16:28;;;;;;;25.33;10.50;;;9.70;64.20;;;;;;5035282;28;20055;-73
2022/02/14 16:18:57;;;;;;;24.27;11.15;;;9.70;64.60;;;;;;5054399;28;20041;-73
2022/02/14 16:21:25;;;;;;;24.17;10.63;;;9.60;64.70;;;;;;5050436;28;20084;-73
2022/02/14 16:23:53;;;;;;;29.70;11.85;;;9.70;65.10;;;;;;5034451;28;20133;-73
2022/02/14 16:26:26;;;;;;;26.77;10.52;;;9.60;64.60;;;;;;5054077;28;20159;-73
2022/02/14 16:28:54;;;;;;;26.15;10.23;;;9.70;64.50;;;;;;5054241;28;20064;-73
2022/02/14 16:31:22;;;;;;;77.88;27.10;;;9.70;64.30;;;;;;5057645;28;20060;-72
2022/02/14 16:33:49;;;;;;;79.68;28.40;;;9.70;64.50;;;;;;5056613;28;20044;-73
2022/02/14 16:36:17;;;;;;;57.67;20.60;;;9.60;64.50;;;;;;5053299;28;20048;-72
2022/02/14 16:38:44;;;;;;;32.75;12.80;;;9.50;64.90;;;;;;5040380;28;20385;-72
2022/02/14 16:41:11;;;;;;;22.95;10.95;;;9.50;65.20;;;;;;5035819;28;20037;-72
2022/02/14 16:43:38;;;;;;;21.30;10.70;;;9.30;65.60;;;;;;5013730;28;20073;-72
2022/02/14 16:46:06;;;;;;;33.08;13.65;;;9.40;65.80;;;;;;5030239;28;20203;-72
2022/02/14 16:48:34;;;;;;;29.20;12.95;;;9.50;65.70;;;;;;5017116;28;20037;-72
2022/02/14 16:51:02;;;;;;;39.30;16.83;;;9.40;66.00;;;;;;5023056;28;20396;-73
2022/02/14 16:53:29;;;;;;;32.15;16.55;;;9.40;66.50;;;;;;5021319;28;20564;-72
2022/02/14 16:55:56;;;;;;;36.72;16.92;;;9.30;67.20;;;;;;5003316;28;20049;-71
2022/02/14 16:58:23;;;;;;;30.60;13.52;;;9.30;68.10;;;;;;4993164;28;20072;-72
2022/02/14 17:00:50;;;;;;;21.55;10.88;;;9.30;68.50;;;;;;4992921;28;20053;-72
2022/02/14 17:03:17;;;;;;;31.45;14.57;;;9.20;69.10;;;;;;5001373;28;20055;-72
2022/02/14 17:05:44;;;;;;;25.45;13.32;;;9.10;69.50;;;;;;5016522;28;20110;-72
2022/02/14 17:08:11;;;;;;;31.23;13.80;;;9.00;69.60;;;;;;5009353;28;20053;-72
2022/02/14 17:10:39;;;;;;;54.60;20.70;;;9.10;69.40;;;;;;5035710;28;20104;-72
2022/02/14 17:13:09;;;;;;;42.35;18.35;;;9.10;69.30;;;;;;5033914;28;20044;-72
2022/02/14 17:15:36;;;;;;;26.80;12.65;;;9.10;69.20;;;;;;5032360;28;20048;-72
2022/02/14 17:18:03;;;;;;;25.73;11.57;;;9.10;69.40;;;;;;5016814;28;20095;-72
2022/02/14 17:20:30;;;;;;;26.40;11.25;;;9.10;69.10;;;;;;5024005;28;20044;-72
2022/02/14 17:22:57;;;;;;;27.98;11.25;;;9.10;69.00;;;;;;5037669;28;20045;-72
2022/02/14 17:25:27;;;;;;;23.02;11.07;;;9.10;69.20;;;;;;5028691;28;20579;-72
2022/02/14 17:27:54;;;;;;;22.05;10.80;;;9.00;69.60;;;;;;5012308;28;20053;-73
2022/02/14 17:30:21;;;;;;;22.00;10.13;;;9.00;69.10;;;;;;5019638;28;20823;-73
2022/02/14 17:32:48;;;;;;;30.30;12.15;;;9.10;68.90;;;;;;5027869;28;20044;-73
2022/02/14 17:35:15;;;;;;;22.17;10.02;;;8.90;69.20;;;;;;5005685;28;20082;-74
2022/02/14 17:37:43;;;;;;;23.65;9.60;;;8.90;69.10;;;;;;5026560;28;20627;-73
2022/02/14 17:40:11;;;;;;;21.35;9.52;;;9.00;69.00;;;;;;5018885;28;20033;-73
2022/02/14 17:42:38;;;;;;;17.98;8.30;;;9.00;68.80;;;;;;5016187;28;20469;-78
2022/02/14 17:45:06;;;;;;;19.65;9.15;;;9.10;68.40;;;;;;5016930;28;20519;-77
2022/02/14 17:47:37;;;;;;;19.15;9.02;;;9.00;68.70;;;;;;5036402;28;20877;-77
2022/02/14 17:50:04;;;;;;;22.00;10.68;;;8.90;69.30;;;;;;5035486;28;20037;-78
2022/02/14 17:52:31;;;;;;;21.30;9.95;;;8.90;69.30;;;;;;5032951;28;20060;-78
2022/02/14 17:54:58;;;;;;;19.77;8.55;;;8.90;69.40;;;;;;5037499;28;20492;-77
2022/02/14 17:57:25;;;;;;;18.77;8.90;;;8.90;69.50;;;;;;5020383;28;20106;-74
2022/02/14 17:59:53;;;;;;;20.40;8.40;;;9.00;69.10;;;;;;5002035;28;20830;-73
2022/02/14 18:02:21;;;;;;;22.95;9.20;;;8.90;69.30;;;;;;5035205;28;20072;-73
2022/02/14 18:04:48;;;;;;;22.63;9.70;;;9.00;69.30;;;;;;4996056;28;20535;-75
2022/02/14 18:07:17;;;;;;;22.92;10.00;;;9.10;69.10;;;;;;5014362;28;20083;-75
2022/02/14 18:09:44;;;;;;;24.17;10.05;;;9.00;69.30;;;;;;5014844;28;20051;-76
2022/02/14 18:12:11;;;;;;;29.55;11.70;;;8.80;70.10;;;;;;5012872;28;20087;-75
2022/02/14 18:14:41;;;;;;;25.23;11.02;;;8.70;70.20;;;;;;5018989;28;20479;-75
2022/02/14 18:17:09;;;;;;;19.17;8.77;;;8.70;72.50;;;;;;5015898;28;20834;-77
2022/02/14 18:19:37;;;;;;;21.98;9.40;;;8.70;75.50;;;;;;5015993;28;20048;-76
2022/02/14 18:22:05;;;;;;;22.13;9.02;;;8.50;80.40;;;;;;5030545;28;20123;-77
2022/02/14 18:24:36;;;;;;;19.92;9.48;;;8.30;83.10;;;;;;5034580;28;20057;-78
2022/02/14 18:27:04;;;;;;;22.95;9.80;;;8.30;84.10;;;;;;5036932;28;20130;-77
2022/02/14 18:29:36;;;;;;;24.63;11.20;;;8.30;86.00;;;;;;5035129;28;20116;-77
2022/02/14 18:32:05;;;;;;;21.08;9.23;;;8.10;87.40;;;;;;5027515;28;20049;-76
2022/02/14 18:34:33;;;;;;;25.55;10.10;;;8.00;88.80;;;;;;5014407;28;20493;-76
2022/02/14 18:37:00;;;;;;;22.25;9.73;;;8.10;88.00;;;;;;4997136;28;20106;-76
2022/02/14 18:39:27;;;;;;;21.73;9.35;;;8.20;86.60;;;;;;5022691;28;20038;-75
2022/02/14 18:42:14;;;;;;;40.08;13.15;;;8.20;86.70;;;;;;5020180;28;20053;-75
2022/02/14 18:44:42;;;;;;;26.20;10.45;;;8.20;86.80;;;;;;5008671;28;20110;-75
2022/02/14 18:47:11;;;;;;;23.75;8.70;;;8.20;86.30;;;;;;5012197;28;20042;-75
2022/02/14 18:49:38;;;;;;;20.92;8.88;;;7.90;86.90;;;;;;5011084;28;20041;-74
2022/02/14 18:52:06;;;;;;;19.38;8.18;;;7.90;86.30;;;;;;5020473;28;20045;-73
2022/02/14 18:54:34;;;;;;;18.08;7.35;;;7.90;86.50;;;;;;5002355;28;20044;-77
2022/02/14 18:57:01;;;;;;;18.95;7.85;;;8.00;86.70;;;;;;5032635;28;20889;-78
2022/02/14 18:59:33;;;;;;;16.98;7.85;;;8.00;86.10;;;;;;5036106;28;20051;-75
2022/02/14 19:02:03;;;;;;;16.05;6.13;;;8.00;86.80;;;;;;5017003;28;20047;-72
2022/02/14 19:04:35;;;;;;;13.75;6.40;;;8.00;84.80;;;;;;5035125;28;20504;-72
2022/02/14 19:07:04;;;;;;;14.95;7.45;;;8.10;85.20;;;;;;5030899;28;20053;-72
2022/02/14 19:09:33;;;;;;;15.05;7.20;;;8.10;86.00;;;;;;5011787;28;20041;-73
2022/02/14 19:12:01;;;;;;;13.00;6.72;;;8.10;87.00;;;;;;5026656;28;20043;-71
2022/02/14 19:14:45;;;;;;;13.63;6.78;;;8.00;88.60;;;;;;5030043;28;20151;-71
2022/02/14 19:17:12;;;;;;;18.13;6.57;;;8.00;88.30;;;;;;5013170;28;20048;-71
2022/02/14 19:19:40;;;;;;;14.13;6.03;;;8.00;88.60;;;;;;4998041;28;20120;-72
2022/02/14 19:22:08;;;;;;;14.38;6.47;;;8.10;87.60;;;;;;5013962;28;20045;-71
2022/02/14 19:24:36;;;;;;;14.27;6.18;;;8.10;88.00;;;;;;5007319;28;20056;-72
2022/02/14 19:27:04;;;;;;;16.33;6.25;;;8.10;89.40;;;;;;5028703;28;20263;-71
2022/02/14 19:29:31;;;;;;;12.85;5.88;;;8.00;90.30;;;;;;5010852;28;20037;-72
2022/02/14 19:31:58;;;;;;;14.77;6.43;;;7.90;91.30;;;;;;5027390;28;20497;-72
2022/02/14 19:34:38;;;;;;;12.60;7.28;;;7.90;91.60;;;;;;5032325;28;20180;-72
2022/02/14 19:37:14;;;;;;;13.50;5.88;;;7.90;91.90;;;;;;5031478;28;20513;-72
2022/02/14 19:39:42;;;;;;;18.27;8.35;;;7.90;92.40;;;;;;5007344;28;22305;-72
2022/02/14 19:42:09;;;;;;;18.88;8.32;;;8.00;92.30;;;;;;5015585;28;20602;-72
2022/02/14 19:44:37;;;;;;;20.60;9.63;;;8.00;92.20;;;;;;5011383;28;20045;-72
2022/02/14 19:47:04;;;;;;;25.80;10.75;;;7.90;92.10;;;;;;5026525;28;20465;-72
2022/02/14 19:49:34;;;;;;;16.65;7.50;;;7.80;92.90;;;;;;5013556;28;20049;-72
2022/02/14 19:52:03;;;;;;;16.17;6.80;;;7.70;92.80;;;;;;5026568;28;20037;-71
2022/02/14 19:54:30;;;;;;;23.95;9.38;;;7.80;92.90;;;;;;5030123;28;20056;-72
2022/02/14 19:56:58;;;;;;;16.55;7.70;;;7.80;92.70;;;;;;5030738;28;20397;-72
2022/02/14 19:59:25;;;;;;;21.02;7.45;;;7.80;92.20;;;;;;5025574;28;20139;-72
2022/02/14 20:01:52;;;;;;;16.00;6.68;;;7.90;91.80;;;;;;5010849;28;20136;-73
2022/02/14 20:04:20;;;;;;;12.70;6.80;;;7.90;91.90;;;;;;5010245;28;20048;-72
2022/02/14 20:06:49;;;;;;;16.60;7.10;;;7.80;91.80;;;;;;5027841;28;20152;-72
2022/02/14 20:09:16;;;;;;;16.50;7.55;;;7.90;91.70;;;;;;5014102;28;20076;-72
2022/02/14 20:11:43;;;;;;;22.45;8.88;;;7.90;91.50;;;;;;5034347;28;20775;-72
2022/02/14 20:14:11;;;;;;;20.30;7.85;;;7.90;91.70;;;;;;5025786;28;20045;-72
2022/02/14 20:16:38;;;;;;;17.63;6.65;;;7.80;92.20;;;;;;5036994;28;20049;-73
2022/02/14 20:19:05;;;;;;;15.73;6.95;;;7.80;92.60;;;;;;5039709;28;20053;-72
2022/02/14 20:21:52;;;;;;;14.77;7.22;;;7.90;92.40;;;;;;5034677;28;20392;-72
2022/02/14 20:24:20;;;;;;;15.88;7.47;;;8.00;92.70;;;;;;5008386;28;20053;-72
2022/02/14 20:26:47;;;;;;;14.73;6.78;;;7.80;93.90;;;;;;5021924;28;20061;-72
2022/02/14 20:29:14;;;;;;;14.82;7.25;;;7.90;94.00;;;;;;5014938;28;20061;-72
2022/02/14 20:31:41;;;;;;;17.83;7.60;;;7.80;94.20;;;;;;5010669;28;22353;-72
2022/02/14 20:34:08;;;;;;;18.70;7.18;;;7.80;94.90;;;;;;5010867;28;20173;-72
2022/02/14 20:36:35;;;;;;;18.33;7.60;;;7.80;96.10;;;;;;5011061;28;20065;-72
2022/02/14 20:39:02;;;;;;;20.75;8.90;;;7.60;98.50;;;;;;5013629;28;20053;-71
2022/02/14 20:41:30;;;;;;;16.80;6.88;;;7.60;99.90;;;;;;5015104;28;20145;-72
2022/02/14 20:43:57;;;;;;;20.55;8.23;;;7.60;99.90;;;;;;5028472;28;20054;-72
2022/02/14 20:46:24;;;;;;;13.55;6.55;;;7.60;99.90;;;;;;5015296;28;20037;-72
2022/02/14 20:48:51;;;;;;;20.25;7.50;;;7.60;99.90;;;;;;5013860;28;20080;-72
2022/02/14 20:51:19;;;;;;;18.70;7.75;;;7.60;99.90;;;;;;5011973;28;20504;-73
2022/02/14 20:53:48;;;;;;;17.45;8.20;;;7.50;99.90;;;;;;5015071;28;20049;-72
2022/02/14 20:56:18;;;;;;;17.17;8.43;;;7.60;99.90;;;;;;5009246;28;20042;-72
2022/02/14 20:58:45;;;;;;;22.38;8.77;;;7.60;99.90;;;;;;4991286;28;20354;-73
2022/02/14 21:01:15;;;;;;;21.55;8.63;;;7.70;99.90;;;;;;5010425;28;20065;-72
2022/02/14 21:03:43;;;;;;;16.20;7.85;;;7.50;99.90;;;;;;5008227;28;20045;-71
2022/02/14 21:06:12;;;;;;;17.17;7.38;;;7.50;99.90;;;;;;5010332;28;20112;-72
2022/02/14 21:08:40;;;;;;;18.33;7.88;;;7.50;99.90;;;;;;5010747;28;20108;-72
2022/02/14 21:11:07;;;;;;;18.83;7.80;;;7.40;99.90;;;;;;5020667;28;20100;-72
2022/02/14 21:13:35;;;;;;;18.45;7.90;;;7.60;99.90;;;;;;4992927;28;20053;-72
2022/02/14 21:16:04;;;;;;;18.08;8.20;;;7.40;99.90;;;;;;5008361;28;20049;-72
2022/02/14 21:18:32;;;;;;;17.85;7.97;;;7.40;99.90;;;;;;5011317;28;20049;-72
2022/02/14 21:20:59;;;;;;;18.35;8.93;;;7.30;99.90;;;;;;4991747;28;20041;-72
2022/02/14 21:23:26;;;;;;;22.00;9.43;;;7.30;99.90;;;;;;5014014;28;20080;-72
2022/02/14 21:25:55;;;;;;;20.90;8.48;;;7.30;99.90;;;;;;5016029;28;20147;-72
2022/02/14 21:28:23;;;;;;;20.70;8.77;;;7.30;99.90;;;;;;5006521;28;20049;-72
2022/02/14 21:30:50;;;;;;;23.67;10.32;;;7.20;99.90;;;;;;5009277;28;20488;-72
2022/02/14 21:33:17;;;;;;;19.58;9.05;;;7.10;99.90;;;;;;5008628;28;20049;-72
2022/02/14 21:35:44;;;;;;;20.23;9.45;;;7.20;99.90;;;;;;5013036;28;20774;-72
2022/02/14 21:38:12;;;;;;;24.73;8.98;;;7.10;99.90;;;;;;5017476;28;20059;-73
2022/02/14 21:40:40;;;;;;;18.45;9.25;;;7.10;99.90;;;;;;5030103;28;20069;-72
2022/02/14 21:43:07;;;;;;;27.58;9.60;;;7.10;99.90;;;;;;5010926;28;20049;-72
2022/02/14 21:45:36;;;;;;;23.58;9.60;;;7.10;99.90;;;;;;4994523;28;20047;-73
2022/02/14 21:48:03;;;;;;;22.35;10.07;;;7.20;99.90;;;;;;5012337;28;20049;-72
2022/02/14 21:50:31;;;;;;;21.27;9.63;;;7.30;99.90;;;;;;5014516;28;20043;-72
2022/02/14 21:52:59;;;;;;;27.65;10.13;;;7.30;99.90;;;;;;4975595;28;20056;-72
2022/02/14 21:55:26;;;;;;;24.27;10.10;;;7.40;99.90;;;;;;5012332;28;20045;-73
2022/02/14 21:57:53;;;;;;;24.25;9.00;;;7.40;99.90;;;;;;5011571;28;20050;-72
2022/02/14 22:00:20;;;;;;;20.27;9.48;;;7.30;99.90;;;;;;5011091;28;20679;-72
2022/02/14 22:02:47;;;;;;;21.58;9.05;;;7.20;99.90;;;;;;5006946;28;20572;-73
2022/02/14 22:08:00;;;;;;;20.67;9.38;;;7.30;99.90;;;;;;5011229;28;20059;-72
2022/02/14 22:10:27;;;;;;;19.38;9.45;;;7.30;99.90;;;;;;5018301;28;20043;-72
2022/02/14 22:12:54;;;;;;;23.73;9.85;;;7.20;99.90;;;;;;5018032;28;20511;-72
2022/02/14 22:15:25;;;;;;;18.40;8.30;;;7.10;99.90;;;;;;5018267;28;20041;-72
2022/02/14 22:17:53;;;;;;;20.60;9.38;;;7.00;99.90;;;;;;5011418;28;20041;-72
2022/02/14 22:20:22;;;;;;;21.30;9.65;;;7.20;99.90;;;;;;5017621;28;20119;-72
2022/02/14 22:22:49;;;;;;;20.85;8.98;;;7.20;99.90;;;;;;5018306;28;20057;-73
2022/02/14 22:25:18;;;;;;;21.77;9.40;;;7.30;99.90;;;;;;4999700;28;20057;-72
2022/02/14 22:27:46;;;;;;;21.85;9.05;;;7.40;99.90;;;;;;5011687;28;20033;-72
2022/02/14 22:30:14;;;;;;;24.40;9.73;;;7.30;99.90;;;;;;5012882;28;20171;-73
2022/02/14 22:32:42;;;;;;;21.77;9.65;;;7.20;99.90;;;;;;5011499;28;20512;-74
2022/02/14 22:35:09;;;;;;;21.73;9.35;;;7.30;99.90;;;;;;4994119;28;20128;-72
2022/02/14 22:37:38;;;;;;;20.63;8.93;;;7.30;99.90;;;;;;5015060;28;20555;-72
2022/02/14 22:40:08;;;;;;;20.85;8.73;;;7.20;99.90;;;;;;5017610;28;20101;-71
2022/02/14 22:42:36;;;;;;;20.92;7.97;;;7.10;99.90;;;;;;5016511;28;20058;-72
2022/02/14 22:45:04;;;;;;;19.15;8.95;;;7.00;99.90;;;;;;5014222;28;20042;-72
2022/02/14 22:47:31;;;;;;;24.13;9.88;;;7.00;99.90;;;;;;5013929;28;20038;-72
2022/02/14 22:49:58;;;;;;;22.40;10.02;;;7.00;99.90;;;;;;5010006;28;20050;-73
2022/02/14 22:52:25;;;;;;;23.23;9.38;;;7.10;99.90;;;;;;5014609;28;20046;-72
2022/02/14 22:54:55;;;;;;;18.65;8.43;;;7.10;99.90;;;;;;5020270;28;20073;-73
2022/02/14 22:57:35;;;;;;;22.58;8.73;;;7.10;99.90;;;;;;5020159;28;20041;-73
2022/02/14 23:00:26;;;;;;;22.10;8.32;;;7.20;99.90;;;;;;4994323;28;20174;-72
2022/02/14 23:02:56;;;;;;;19.42;8.73;;;7.30;99.90;;;;;;5010865;28;20053;-72
2022/02/14 23:05:25;;;;;;;23.17;9.32;;;7.30;99.90;;;;;;5016039;28;20052;-72
2022/02/14 23:16:10;;;;;;;20.63;9.02;;;7.30;99.90;;;;;;5011420;28;20057;-72
2022/02/14 23:18:37;;;;;;;21.70;9.32;;;7.10;99.90;;;;;;5014929;28;20052;-73
2022/02/14 23:21:04;;;;;;;20.48;9.10;;;7.30;99.90;;;;;;5028615;28;20048;-72
2022/02/14 23:23:31;;;;;;;29.92;9.38;;;7.20;99.90;;;;;;5030431;28;20056;-72
2022/02/14 23:25:58;;;;;;;22.27;9.82;;;7.20;99.90;;;;;;5016034;28;20061;-72
2022/02/14 23:28:27;;;;;;;21.25;9.15;;;7.20;99.90;;;;;;4995046;28;20049;-72
2022/02/14 23:30:54;;;;;;;23.88;10.48;;;7.10;99.90;;;;;;5012959;28;20184;-72
2022/02/14 23:33:21;;;;;;;24.08;9.68;;;7.10;99.90;;;;;;5011628;28;20041;-72
2022/02/14 23:35:48;;;;;;;22.67;10.38;;;7.10;99.90;;;;;;5010118;28;20033;-72
2022/02/14 23:38:15;;;;;;;23.27;9.65;;;7.20;99.90;;;;;;5010560;28;20100;-73
2022/02/14 23:40:44;;;;;;;23.63;9.13;;;7.20;99.90;;;;;;5009546;28;20072;-72
2022/02/14 23:43:11;;;;;;;23.40;9.68;;;7.20;99.90;;;;;;5014412;28;20041;-72
2022/02/14 23:45:38;;;;;;;21.02;9.63;;;7.30;99.90;;;;;;5016576;28;21293;-73
2022/02/14 23:48:05;;;;;;;20.67;9.85;;;7.10;99.90;;;;;;5021347;28;20045;-73
2022/02/14 23:50:33;;;;;;;21.05;9.45;;;7.10;99.90;;;;;;5023537;28;20051;-72
2022/02/14 23:53:02;;;;;;;23.70;9.25;;;7.20;99.90;;;;;;5001818;28;20041;-73
2022/02/14 23:55:29;;;;;;;22.65;10.65;;;7.20;99.90;;;;;;5023808;28;20037;-72
2022/02/14 23:57:57;;;;;;;22.20;9.52;;;7.20;99.90;;;;;;5030390;28;20049;-72
